Aviation Digital Data Service (ADDS)

Output produced by METARs form (1428 UTC 30 June 2015)
found at http://aviationweather.gov/adds/metars/
 
KSWF 301120Z 3012/0118 VRB03KT P6SM SCT060 
     FM301400 VRB06KT P6SM SCT040 BKN150 
     FM301800 18010G16KT P6SM SCT040 BKN120 
     FM010000 16006KT P6SM BKN040 BKN100 
     TEMPO 0108/0112 -SHRA BKN010 
     FM011200 VRB06KT P6SM -SHRA BKN010 AMD NOT SKED